createdAt,value
2018-09-30T00:00:23.693Z,5.40
2018-09-30T00:01:27.145Z,7.17
2018-09-30T00:02:30.583Z,6.43
2018-09-30T00:03:33.991Z,6.10
2018-09-30T00:04:37.413Z,5.40
2018-09-30T00:05:41.016Z,5.03
2018-09-30T00:06:44.485Z,5.90
2018-09-30T00:07:47.927Z,5.70
2018-09-30T00:08:51.382Z,5.40
2018-09-30T00:09:54.872Z,5.10
2018-09-30T00:10:58.352Z,5.73
2018-09-30T00:12:02.918Z,5.20
2018-09-30T00:13:06.413Z,5.57
2018-09-30T00:14:09.880Z,5.53
2018-09-30T00:15:13.360Z,5.10
2018-09-30T00:16:16.867Z,5.60
2018-09-30T00:17:20.274Z,5.20
2018-09-30T00:18:23.744Z,4.97
2018-09-30T00:19:27.227Z,4.70
2018-09-30T00:20:30.683Z,5.73
2018-09-30T00:21:34.137Z,5.03
2018-09-30T00:22:37.584Z,5.20
2018-09-30T00:23:46.484Z,5.17
2018-09-30T00:24:55.117Z,5.17
2018-09-30T00:27:05.669Z,5.83
2018-09-30T00:28:09.097Z,4.80
2018-09-30T00:29:12.564Z,6.03
2018-09-30T00:30:16.039Z,4.80
2018-09-30T00:31:19.542Z,4.87
2018-09-30T00:32:22.957Z,4.83
2018-09-30T00:33:26.364Z,5.33
2018-09-30T00:34:30.628Z,5.10
2018-09-30T00:35:34.067Z,5.13
2018-09-30T00:36:37.486Z,4.73
2018-09-30T00:37:40.942Z,5.80
2018-09-30T00:38:44.425Z,4.73
2018-09-30T00:39:47.861Z,5.03
2018-09-30T00:40:51.399Z,4.50
2018-09-30T00:41:55.130Z,4.70
2018-09-30T00:42:58.685Z,4.80
2018-09-30T00:44:02.137Z,4.20
2018-09-30T00:45:05.631Z,5.10
2018-09-30T00:46:09.257Z,4.53
2018-09-30T00:47:12.687Z,5.23
2018-09-30T00:48:16.165Z,4.83
2018-09-30T00:49:19.588Z,4.60
2018-09-30T00:50:23.088Z,4.70
2018-09-30T00:51:26.495Z,4.57
2018-09-30T00:52:29.913Z,4.60
2018-09-30T00:53:33.392Z,4.47
2018-09-30T00:54:36.852Z,3.90
2018-09-30T00:55:40.337Z,4.50
2018-09-30T00:56:44.050Z,4.60
2018-09-30T00:57:47.512Z,4.70
2018-09-30T00:58:50.927Z,4.20
2018-09-30T00:59:54.383Z,5.03
2018-09-30T01:00:57.840Z,4.80
2018-09-30T01:02:01.276Z,4.80
2018-09-30T01:03:04.720Z,4.30
2018-09-30T01:04:08.487Z,4.60
2018-09-30T01:05:11.953Z,4.70
2018-09-30T01:06:15.390Z,5.27
2018-09-30T01:07:18.817Z,4.67
2018-09-30T01:08:22.251Z,4.73
2018-09-30T01:09:25.652Z,4.63
2018-09-30T01:10:29.056Z,4.73
2018-09-30T01:11:32.550Z,4.13
2018-09-30T01:12:35.999Z,4.00
2018-09-30T01:13:39.441Z,4.30
2018-09-30T01:14:42.893Z,3.97
2018-09-30T01:15:46.317Z,4.20
2018-09-30T01:16:49.793Z,4.03
2018-09-30T01:17:53.217Z,4.20
2018-09-30T01:18:56.628Z,4.17
2018-09-30T01:20:00.040Z,4.40
2018-09-30T01:21:03.486Z,3.90
2018-09-30T01:22:06.991Z,4.00
2018-09-30T01:23:10.405Z,3.87
2018-09-30T01:24:13.861Z,4.63
2018-09-30T01:25:17.307Z,3.73
2018-09-30T01:26:20.719Z,4.00
2018-09-30T01:27:24.151Z,4.00
2018-09-30T01:28:27.574Z,4.60
2018-09-30T01:29:31.016Z,3.97
2018-09-30T01:30:34.445Z,4.07
2018-09-30T01:31:37.823Z,3.33
2018-09-30T01:32:41.238Z,4.37
2018-09-30T01:33:44.727Z,3.63
2018-09-30T01:34:48.244Z,4.27
2018-09-30T01:35:52.677Z,3.93
2018-09-30T01:36:56.102Z,3.70
2018-09-30T01:37:59.523Z,4.10
2018-09-30T01:39:03.858Z,4.27
2018-09-30T01:40:07.602Z,3.87
2018-09-30T01:41:11.057Z,3.67
2018-09-30T01:42:14.427Z,3.50
2018-09-30T01:43:17.911Z,4.33
2018-09-30T01:44:21.343Z,4.03
2018-09-30T01:45:24.761Z,3.93
2018-09-30T01:46:28.239Z,3.50
2018-09-30T01:47:31.657Z,3.60
2018-09-30T01:48:35.104Z,3.60
2018-09-30T01:49:38.543Z,3.70
2018-09-30T01:50:41.973Z,3.87
2018-09-30T01:51:45.422Z,3.83
2018-09-30T01:52:54.887Z,3.70
2018-09-30T01:53:58.311Z,3.90
2018-09-30T01:55:01.776Z,3.90
2018-09-30T01:56:05.207Z,3.90
2018-09-30T01:57:08.649Z,4.07
2018-09-30T01:58:12.066Z,3.90
2018-09-30T01:59:15.545Z,3.13
2018-09-30T02:00:19.453Z,3.57
2018-09-30T02:01:22.894Z,5.13
2018-09-30T02:02:26.263Z,3.53
2018-09-30T02:03:29.662Z,3.63
2018-09-30T02:04:33.172Z,3.50
2018-09-30T02:05:36.611Z,3.87
2018-09-30T02:06:40.027Z,3.70
2018-09-30T02:07:43.507Z,3.60
2018-09-30T02:08:46.937Z,4.10
2018-09-30T02:09:50.440Z,3.33
2018-09-30T02:10:53.866Z,3.70
2018-09-30T02:11:57.276Z,3.37
2018-09-30T02:13:00.721Z,3.70
2018-09-30T02:14:04.141Z,3.63
2018-09-30T02:15:07.685Z,3.43
2018-09-30T02:16:11.135Z,3.33
2018-09-30T02:17:14.555Z,3.03
2018-09-30T02:18:18.016Z,3.23
2018-09-30T02:19:21.449Z,3.20
2018-09-30T02:20:24.886Z,2.77
2018-09-30T02:21:28.333Z,3.70
2018-09-30T02:22:31.784Z,3.57
2018-09-30T02:23:35.196Z,3.60
2018-09-30T02:24:38.622Z,2.93
2018-09-30T02:25:42.125Z,3.00
2018-09-30T02:26:45.634Z,3.10
2018-09-30T02:27:49.097Z,3.03
2018-09-30T02:28:52.594Z,2.97
2018-09-30T02:29:56.004Z,3.17
2018-09-30T02:30:59.462Z,3.00
2018-09-30T02:32:02.915Z,3.03
2018-09-30T02:33:06.391Z,3.20
2018-09-30T02:34:09.857Z,3.20
2018-09-30T02:35:13.266Z,3.10
2018-09-30T02:36:16.765Z,2.23
2018-09-30T02:37:20.201Z,2.90
2018-09-30T02:38:23.643Z,3.10
2018-09-30T02:39:27.075Z,3.07
2018-09-30T02:40:30.498Z,3.07
2018-09-30T02:41:33.970Z,2.97
2018-09-30T02:42:37.454Z,2.80
2018-09-30T02:43:41.095Z,2.77
2018-09-30T02:44:44.573Z,3.20
2018-09-30T02:45:48.038Z,2.83
2018-09-30T02:46:51.489Z,3.00
2018-09-30T02:47:54.922Z,2.90
2018-09-30T02:48:58.339Z,2.80
2018-09-30T02:50:01.785Z,2.60
2018-09-30T02:51:05.366Z,2.70
2018-09-30T02:52:08.763Z,3.10
2018-09-30T02:53:12.216Z,2.77
2018-09-30T02:54:15.634Z,2.90
2018-09-30T02:55:19.035Z,2.93
2018-09-30T02:56:22.504Z,2.60
2018-09-30T02:57:25.959Z,3.00
2018-09-30T02:58:29.354Z,2.60
2018-09-30T02:59:32.780Z,2.80
2018-09-30T03:00:36.215Z,2.57
2018-09-30T03:01:39.720Z,2.87
2018-09-30T03:02:43.137Z,2.73
2018-09-30T03:03:46.550Z,3.07
2018-09-30T03:04:49.994Z,3.20
2018-09-30T03:05:53.395Z,2.50
2018-09-30T03:07:02.074Z,2.90
2018-09-30T03:08:10.927Z,3.27
2018-09-30T03:09:16.148Z,2.80
2018-09-30T03:10:19.585Z,2.63
2018-09-30T03:11:23.068Z,3.00
2018-09-30T03:12:26.554Z,3.13
2018-09-30T03:13:29.974Z,3.00
2018-09-30T03:14:33.399Z,3.07
2018-09-30T03:15:36.841Z,3.13
2018-09-30T03:16:40.451Z,2.40
2018-09-30T03:17:43.933Z,2.37
2018-09-30T03:18:47.347Z,2.43
2018-09-30T03:19:50.847Z,3.00
2018-09-30T03:20:54.263Z,2.63
2018-09-30T03:21:57.705Z,3.37
2018-09-30T03:23:01.145Z,2.63
2018-09-30T03:24:04.589Z,2.70
2018-09-30T03:25:08.009Z,2.50
2018-09-30T03:26:11.430Z,2.93
2018-09-30T03:27:14.847Z,2.60
2018-09-30T03:28:18.300Z,2.63
2018-09-30T03:29:21.768Z,2.77
2018-09-30T03:30:25.185Z,2.30
2018-09-30T03:31:28.635Z,2.60
2018-09-30T03:32:32.053Z,2.60
2018-09-30T03:33:35.519Z,2.50
2018-09-30T03:34:38.981Z,3.13
2018-09-30T03:35:42.401Z,2.50
2018-09-30T03:36:45.876Z,2.27
2018-09-30T03:37:49.315Z,2.70
2018-09-30T03:38:52.773Z,2.43
2018-09-30T03:39:56.188Z,2.33
2018-09-30T03:40:59.661Z,2.30
2018-09-30T03:42:03.148Z,2.47
2018-09-30T03:43:06.635Z,2.50
2018-09-30T03:44:10.083Z,2.20
2018-09-30T03:45:13.535Z,2.70
2018-09-30T03:46:16.999Z,2.40
2018-09-30T03:47:20.420Z,2.83
2018-09-30T03:48:23.869Z,2.30
2018-09-30T03:49:27.266Z,2.37
2018-09-30T03:50:30.724Z,2.50
2018-09-30T03:51:34.154Z,2.10
2018-09-30T03:52:37.585Z,2.33
2018-09-30T03:53:41.021Z,2.10
2018-09-30T03:54:44.456Z,2.27
2018-09-30T03:55:47.875Z,2.13
2018-09-30T03:56:51.276Z,2.30
2018-09-30T03:57:54.672Z,2.07
2018-09-30T03:58:58.116Z,2.33
2018-09-30T04:00:01.783Z,2.83
2018-09-30T04:01:05.239Z,2.43
2018-09-30T04:02:08.686Z,2.20
2018-09-30T04:03:12.071Z,2.37
2018-09-30T04:04:15.508Z,2.57
2018-09-30T04:05:18.957Z,1.97
2018-09-30T04:06:22.364Z,2.23
2018-09-30T04:07:25.796Z,2.13
2018-09-30T04:08:29.207Z,2.30
2018-09-30T04:09:32.733Z,2.10
2018-09-30T04:10:36.110Z,2.87
2018-09-30T04:11:39.552Z,2.03
2018-09-30T04:12:42.990Z,2.30
2018-09-30T04:13:46.400Z,2.00
2018-09-30T04:14:49.803Z,2.30
2018-09-30T04:15:53.245Z,2.17
2018-09-30T04:16:56.740Z,2.23
2018-09-30T04:18:00.140Z,2.10
2018-09-30T04:19:03.624Z,2.07
2018-09-30T04:20:07.111Z,2.20
2018-09-30T04:21:10.564Z,2.00
2018-09-30T04:22:13.998Z,2.37
2018-09-30T04:23:17.454Z,2.70
2018-09-30T04:24:20.959Z,2.90
2018-09-30T04:25:24.402Z,2.23
2018-09-30T04:26:27.822Z,1.90
2018-09-30T04:27:31.240Z,2.13
2018-09-30T04:28:34.697Z,2.00
2018-09-30T04:29:38.163Z,2.17
2018-09-30T04:30:41.622Z,2.00
2018-09-30T04:31:45.029Z,2.10
2018-09-30T04:32:48.492Z,2.00
2018-09-30T04:33:51.973Z,2.20
2018-09-30T04:34:55.373Z,2.00
2018-09-30T04:35:58.816Z,2.20
2018-09-30T04:37:02.465Z,1.80
2018-09-30T04:38:06.201Z,2.20
2018-09-30T04:39:10.081Z,2.40
2018-09-30T04:40:13.503Z,2.13
2018-09-30T04:41:16.958Z,2.10
2018-09-30T04:42:20.440Z,1.90
2018-09-30T04:43:23.895Z,1.90
2018-09-30T04:44:27.321Z,1.80
2018-09-30T04:45:30.735Z,2.00
2018-09-30T04:46:34.187Z,2.00
2018-09-30T04:47:37.594Z,1.80
2018-09-30T04:48:41.007Z,1.80
2018-09-30T04:49:44.444Z,1.67
2018-09-30T04:50:47.910Z,1.80
2018-09-30T04:51:51.335Z,1.90
2018-09-30T04:52:54.774Z,2.20
2018-09-30T04:53:58.188Z,2.33
2018-09-30T04:55:01.602Z,2.27
2018-09-30T04:56:05.032Z,2.00
2018-09-30T04:57:08.489Z,1.90
2018-09-30T04:58:11.900Z,2.10
2018-09-30T04:59:15.408Z,2.33
2018-09-30T05:00:18.848Z,1.70
2018-09-30T05:01:22.298Z,1.83
2018-09-30T05:02:25.742Z,2.07
2018-09-30T05:03:29.199Z,2.03
2018-09-30T05:04:32.659Z,2.10
2018-09-30T05:05:36.102Z,1.60
2018-09-30T05:06:39.520Z,2.10
2018-09-30T05:07:42.955Z,1.83
2018-09-30T05:08:46.395Z,1.80
2018-09-30T05:09:49.829Z,1.60
2018-09-30T05:10:53.247Z,1.77
2018-09-30T05:11:56.666Z,1.93
2018-09-30T05:13:00.086Z,1.70
2018-09-30T05:14:03.482Z,1.90
2018-09-30T05:15:06.954Z,1.90
2018-09-30T05:16:10.463Z,2.00
2018-09-30T05:17:13.801Z,2.10
2018-09-30T05:18:17.234Z,1.60
2018-09-30T05:19:20.679Z,1.53
2018-09-30T05:20:24.144Z,1.40
2018-09-30T05:21:27.638Z,1.60
2018-09-30T05:22:31.063Z,2.00
2018-09-30T05:23:34.496Z,1.77
2018-09-30T05:24:37.945Z,1.50
2018-09-30T05:25:41.367Z,1.90
2018-09-30T05:26:44.819Z,1.70
2018-09-30T05:27:48.279Z,1.73
2018-09-30T05:28:51.752Z,1.90
2018-09-30T05:29:55.197Z,1.77
2018-09-30T05:30:58.687Z,1.87
2018-09-30T05:32:02.142Z,2.13
2018-09-30T05:33:05.582Z,1.67
2018-09-30T05:34:09.029Z,1.73
2018-09-30T05:35:12.446Z,1.53
2018-09-30T05:36:15.871Z,1.70
2018-09-30T05:37:19.366Z,1.73
2018-09-30T05:38:22.739Z,1.77
2018-09-30T05:39:26.195Z,1.90
2018-09-30T05:40:29.640Z,1.67
2018-09-30T05:41:33.084Z,1.40
2018-09-30T05:42:36.524Z,1.60
2018-09-30T05:43:39.981Z,1.50
2018-09-30T05:44:44.096Z,1.57
2018-09-30T05:45:47.549Z,1.67
2018-09-30T05:46:51.035Z,1.47
2018-09-30T05:47:54.457Z,2.03
2018-09-30T05:48:57.921Z,1.67
2018-09-30T05:50:01.347Z,1.90
2018-09-30T05:51:04.778Z,1.57
2018-09-30T05:52:08.260Z,2.00
2018-09-30T05:53:11.709Z,1.57
2018-09-30T05:54:15.352Z,1.70
2018-09-30T05:55:18.755Z,1.87
2018-09-30T05:56:22.196Z,1.60
2018-09-30T05:57:25.661Z,1.30
2018-09-30T05:58:29.081Z,1.70
2018-09-30T05:59:32.517Z,1.90
2018-09-30T06:00:35.961Z,1.33
2018-09-30T06:01:39.624Z,1.60
2018-09-30T06:02:43.047Z,1.70
2018-09-30T06:03:46.669Z,1.70
2018-09-30T06:04:50.150Z,1.60
2018-09-30T06:05:53.572Z,1.67
2018-09-30T06:06:56.989Z,1.30
2018-09-30T06:08:00.461Z,1.70
2018-09-30T06:09:05.153Z,1.50
2018-09-30T06:10:08.624Z,1.83
2018-09-30T06:11:12.078Z,1.20
2018-09-30T06:12:15.510Z,1.70
2018-09-30T06:13:18.941Z,1.93
2018-09-30T06:14:22.453Z,1.60
2018-09-30T06:15:25.882Z,1.50
2018-09-30T06:16:29.332Z,1.53
2018-09-30T06:17:32.812Z,1.57
2018-09-30T06:18:36.233Z,1.60
2018-09-30T06:19:39.791Z,1.80
2018-09-30T06:20:43.229Z,1.40
2018-09-30T06:21:46.707Z,1.30
2018-09-30T06:22:50.181Z,1.53
2018-09-30T06:23:53.632Z,1.93
2018-09-30T06:24:57.087Z,1.57
2018-09-30T06:26:00.604Z,1.60
2018-09-30T06:27:04.047Z,1.80
2018-09-30T06:28:07.521Z,1.73
2018-09-30T06:29:11.118Z,1.60
2018-09-30T06:30:14.599Z,2.13
2018-09-30T06:31:18.020Z,2.33
2018-09-30T06:32:21.463Z,2.10
2018-09-30T06:33:24.906Z,1.60
2018-09-30T06:34:28.383Z,1.93
2018-09-30T06:35:31.824Z,1.87
2018-09-30T06:36:35.323Z,2.03
2018-09-30T06:37:38.746Z,1.97
2018-09-30T06:38:42.210Z,1.57
2018-09-30T06:39:45.713Z,1.40
2018-09-30T06:40:49.164Z,1.60
2018-09-30T06:41:52.649Z,1.53
2018-09-30T06:42:56.080Z,1.50
2018-09-30T06:43:59.568Z,2.50
2018-09-30T06:45:03.203Z,2.27
2018-09-30T06:46:06.852Z,2.00
2018-09-30T06:47:10.350Z,1.80
2018-09-30T06:48:13.844Z,2.13
2018-09-30T06:49:17.315Z,2.40
2018-09-30T06:50:20.887Z,2.70
2018-09-30T06:51:25.243Z,1.87
2018-09-30T06:52:28.753Z,2.43
2018-09-30T06:53:32.222Z,2.27
2018-09-30T06:54:35.705Z,2.33
2018-09-30T06:55:39.153Z,2.93
2018-09-30T06:56:42.752Z,1.93
2018-09-30T06:57:46.289Z,2.17
2018-09-30T06:58:49.828Z,2.67
2018-09-30T06:59:53.344Z,2.83
2018-09-30T07:00:56.781Z,3.03
2018-09-30T07:02:00.285Z,2.80
2018-09-30T07:03:03.936Z,2.80
2018-09-30T07:04:07.523Z,2.70
2018-09-30T07:05:11.006Z,2.63
2018-09-30T07:06:14.853Z,3.40
2018-09-30T07:07:18.309Z,4.60
2018-09-30T07:08:21.767Z,4.90
2018-09-30T07:09:25.201Z,4.90
2018-09-30T07:10:28.628Z,4.47
2018-09-30T07:11:32.200Z,4.80
2018-09-30T07:12:35.730Z,4.87
2018-09-30T07:13:39.256Z,5.07
2018-09-30T07:14:42.674Z,4.90
2018-09-30T07:15:46.159Z,5.50
2018-09-30T07:16:49.615Z,5.50
2018-09-30T07:17:53.058Z,5.07
2018-09-30T07:18:56.487Z,5.53
2018-09-30T07:19:59.931Z,5.37
2018-09-30T07:21:03.455Z,5.57
2018-09-30T07:22:06.890Z,4.60
2018-09-30T07:23:10.667Z,4.87
2018-09-30T07:24:14.138Z,4.40
2018-09-30T07:25:17.750Z,4.63
2018-09-30T07:26:21.232Z,4.33
2018-09-30T07:27:24.760Z,4.57
2018-09-30T07:28:28.209Z,4.20
2018-09-30T07:29:31.644Z,3.60
2018-09-30T07:30:35.075Z,4.13
2018-09-30T07:31:38.526Z,3.43
2018-09-30T07:32:42.064Z,3.73
2018-09-30T07:33:45.541Z,3.43
2018-09-30T07:34:49.173Z,3.50
2018-09-30T07:35:52.654Z,3.53
2018-09-30T07:36:56.099Z,3.77
2018-09-30T07:37:59.523Z,3.37
2018-09-30T07:39:03.045Z,4.00
2018-09-30T07:40:06.506Z,3.53
2018-09-30T07:41:09.963Z,3.10
2018-09-30T07:42:13.452Z,3.40
2018-09-30T07:43:17.018Z,2.90
2018-09-30T07:44:20.496Z,3.57
2018-09-30T07:45:23.969Z,2.70
2018-09-30T07:46:27.417Z,3.03
2018-09-30T07:47:30.828Z,2.70
2018-09-30T07:48:34.495Z,2.93
2018-09-30T07:49:37.895Z,2.77
2018-09-30T07:50:41.356Z,3.10
2018-09-30T07:51:44.786Z,2.67
2018-09-30T07:52:48.360Z,2.80
2018-09-30T07:53:51.811Z,2.20
2018-09-30T07:54:55.241Z,2.70
2018-09-30T07:55:58.730Z,2.53
2018-09-30T07:57:02.154Z,2.50
2018-09-30T07:58:05.613Z,2.10
2018-09-30T07:59:09.355Z,2.50
2018-09-30T08:00:12.782Z,2.80
2018-09-30T08:01:16.334Z,2.73
2018-09-30T08:02:20.353Z,2.33
2018-09-30T08:03:23.903Z,2.20
2018-09-30T08:04:27.352Z,2.40
2018-09-30T08:05:30.774Z,2.70
2018-09-30T08:06:34.229Z,2.23
2018-09-30T08:07:37.640Z,2.23
2018-09-30T08:08:41.130Z,2.87
2018-09-30T08:09:44.569Z,2.83
2018-09-30T08:10:48.037Z,2.70
2018-09-30T08:11:51.457Z,2.07
2018-09-30T08:12:54.869Z,2.57
2018-09-30T08:13:58.412Z,2.33
2018-09-30T08:15:01.855Z,2.47
2018-09-30T08:16:05.302Z,2.40
2018-09-30T08:17:08.691Z,2.90
2018-09-30T08:18:12.141Z,2.40
2018-09-30T08:19:15.618Z,2.90
2018-09-30T08:20:19.055Z,2.50
2018-09-30T08:21:22.603Z,2.80
2018-09-30T08:22:26.037Z,2.80
2018-09-30T08:23:29.517Z,2.60
2018-09-30T08:24:33.010Z,2.93
2018-09-30T08:25:36.473Z,2.97
2018-09-30T08:26:40.050Z,2.40
2018-09-30T08:27:43.593Z,2.57
2018-09-30T08:28:47.158Z,3.00
2018-09-30T08:29:50.796Z,3.40
2018-09-30T08:30:54.332Z,2.70
2018-09-30T08:31:57.740Z,2.10
2018-09-30T08:33:01.153Z,2.60
2018-09-30T08:34:04.637Z,2.60
2018-09-30T08:35:08.151Z,2.50
2018-09-30T08:36:12.707Z,2.60
2018-09-30T08:37:20.339Z,2.30
2018-09-30T08:38:29.836Z,2.70
2018-09-30T08:39:33.307Z,2.70
2018-09-30T08:40:42.171Z,2.63
2018-09-30T08:41:45.665Z,2.17
2018-09-30T08:42:49.225Z,2.00
2018-09-30T08:43:52.710Z,2.90
2018-09-30T08:44:56.258Z,2.23
2018-09-30T08:46:00.288Z,2.40
2018-09-30T08:47:03.725Z,2.63
2018-09-30T08:48:07.176Z,2.10
2018-09-30T08:49:10.719Z,1.87
2018-09-30T08:50:14.456Z,2.17
2018-09-30T08:51:18.094Z,2.00
2018-09-30T08:52:21.573Z,1.80
2018-09-30T08:53:25.449Z,2.20
2018-09-30T08:54:28.971Z,2.10
2018-09-30T08:55:32.414Z,2.30
2018-09-30T08:56:35.907Z,2.57
2018-09-30T08:57:39.406Z,2.50
2018-09-30T08:58:42.820Z,2.47
2018-09-30T08:59:46.320Z,2.60
2018-09-30T09:00:50.166Z,2.23
2018-09-30T09:01:53.785Z,2.30
2018-09-30T09:02:57.267Z,2.40
2018-09-30T09:04:00.712Z,2.17
2018-09-30T09:05:04.219Z,2.30
2018-09-30T09:06:07.640Z,1.97
2018-09-30T09:07:11.257Z,2.20
2018-09-30T09:08:14.712Z,2.10
2018-09-30T09:09:18.179Z,1.90
2018-09-30T09:10:21.661Z,2.53
2018-09-30T09:11:25.266Z,2.10
2018-09-30T09:12:28.744Z,2.40
2018-09-30T09:13:32.268Z,1.97
2018-09-30T09:14:35.725Z,1.97
2018-09-30T09:15:39.282Z,2.40
2018-09-30T09:16:42.939Z,2.30
2018-09-30T09:17:47.351Z,2.60
2018-09-30T09:18:50.983Z,2.47
2018-09-30T09:19:54.584Z,2.23
2018-09-30T09:20:58.113Z,1.90
2018-09-30T09:22:01.597Z,2.43
2018-09-30T09:23:05.063Z,2.33
2018-09-30T09:24:08.586Z,2.10
2018-09-30T09:25:12.078Z,2.20
2018-09-30T09:26:15.567Z,2.07
2018-09-30T09:27:19.309Z,2.20
2018-09-30T09:28:22.773Z,2.20
2018-09-30T09:29:26.204Z,2.10
2018-09-30T09:30:29.646Z,2.13
2018-09-30T09:31:33.192Z,2.40
2018-09-30T09:32:37.222Z,2.90
2018-09-30T09:33:40.673Z,2.87
2018-09-30T09:34:44.113Z,2.80
2018-09-30T09:35:47.901Z,2.63
2018-09-30T09:36:51.339Z,2.97
2018-09-30T09:37:54.866Z,2.60
2018-09-30T09:38:58.255Z,2.00
2018-09-30T09:40:01.699Z,2.80
2018-09-30T09:41:05.338Z,2.23
2018-09-30T09:42:08.884Z,2.70
2018-09-30T09:43:12.325Z,2.80
2018-09-30T09:44:15.860Z,2.50
2018-09-30T09:45:19.354Z,2.37
2018-09-30T09:46:22.876Z,3.20
2018-09-30T09:47:26.331Z,3.77
2018-09-30T09:48:29.750Z,3.10
2018-09-30T09:49:33.252Z,2.93
2018-09-30T09:50:36.866Z,2.90
2018-09-30T09:51:40.985Z,3.40
2018-09-30T09:52:44.525Z,2.77
2018-09-30T09:53:47.960Z,3.00
2018-09-30T09:54:51.420Z,2.77
2018-09-30T09:55:54.867Z,3.03
2018-09-30T09:56:58.300Z,3.07
2018-09-30T09:58:01.829Z,2.90
2018-09-30T09:59:05.506Z,3.03
2018-09-30T10:00:09.792Z,2.97
2018-09-30T10:01:13.283Z,2.73
2018-09-30T10:02:16.745Z,2.77
2018-09-30T10:03:20.195Z,2.90
2018-09-30T10:04:23.619Z,3.20
2018-09-30T10:05:27.083Z,3.00
2018-09-30T10:06:30.517Z,2.80
2018-09-30T10:07:34.062Z,2.90
2018-09-30T10:08:37.548Z,2.77
2018-09-30T10:09:40.994Z,2.97
2018-09-30T10:10:45.419Z,3.47
2018-09-30T10:11:48.982Z,3.03
2018-09-30T10:12:52.457Z,2.90
2018-09-30T10:13:55.885Z,2.67
2018-09-30T10:14:59.290Z,2.43
2018-09-30T10:16:02.724Z,2.60
2018-09-30T10:17:06.217Z,2.43
2018-09-30T10:18:09.723Z,2.83
2018-09-30T10:19:13.254Z,2.77
2018-09-30T10:20:16.713Z,2.63
2018-09-30T10:21:20.174Z,2.37
2018-09-30T10:22:23.669Z,2.70
2018-09-30T10:23:27.114Z,2.70
2018-09-30T10:24:31.033Z,2.50
2018-09-30T10:25:34.496Z,2.60
2018-09-30T10:26:37.939Z,2.90
2018-09-30T10:27:41.409Z,2.57
2018-09-30T10:28:44.831Z,2.63
2018-09-30T10:29:48.253Z,2.87
2018-09-30T10:30:51.975Z,2.20
2018-09-30T10:31:55.373Z,3.23
2018-09-30T10:32:58.853Z,3.13
2018-09-30T10:34:02.390Z,3.30
2018-09-30T10:35:06.047Z,3.00
2018-09-30T10:36:09.545Z,3.70
2018-09-30T10:37:13.137Z,3.90
2018-09-30T10:38:16.611Z,3.40
2018-09-30T10:39:20.444Z,3.53
2018-09-30T10:40:23.862Z,3.70
2018-09-30T10:41:27.286Z,3.17
2018-09-30T10:42:31.355Z,3.60
2018-09-30T10:43:34.820Z,2.83
2018-09-30T10:44:38.211Z,3.27
2018-09-30T10:45:41.632Z,3.20
2018-09-30T10:46:45.622Z,3.63
2018-09-30T10:47:49.167Z,3.20
2018-09-30T10:48:52.579Z,3.00
2018-09-30T10:49:56.025Z,3.10
2018-09-30T10:50:59.456Z,3.77
2018-09-30T10:52:03.043Z,3.93
2018-09-30T10:53:06.536Z,4.10
2018-09-30T10:54:10.005Z,4.03
2018-09-30T10:55:13.494Z,3.70
2018-09-30T10:56:16.936Z,3.83
2018-09-30T10:57:20.389Z,3.00
2018-09-30T10:58:23.857Z,4.00
2018-09-30T10:59:27.405Z,4.20
2018-09-30T11:00:30.969Z,3.40
2018-09-30T11:01:34.476Z,4.23
2018-09-30T11:02:37.932Z,3.57
2018-09-30T11:03:41.473Z,4.23
2018-09-30T11:04:44.937Z,3.13
2018-09-30T11:05:48.490Z,3.73
2018-09-30T11:06:51.896Z,4.20
2018-09-30T11:07:55.344Z,4.37
2018-09-30T11:08:58.812Z,4.90
2018-09-30T11:10:02.663Z,4.10
2018-09-30T11:11:06.553Z,3.47
2018-09-30T11:12:09.997Z,3.70
2018-09-30T11:13:13.408Z,3.97
2018-09-30T11:14:16.893Z,3.83
2018-09-30T11:15:20.359Z,4.30
2018-09-30T11:16:23.943Z,4.10
2018-09-30T11:17:27.384Z,4.00
2018-09-30T11:18:30.874Z,3.67
2018-09-30T11:19:34.336Z,3.53
2018-09-30T11:20:37.769Z,4.60
2018-09-30T11:21:41.186Z,3.87
2018-09-30T11:22:44.883Z,3.97
2018-09-30T11:23:48.352Z,3.60
2018-09-30T11:24:51.965Z,4.10
2018-09-30T11:25:55.528Z,3.70
2018-09-30T11:26:58.954Z,4.10
2018-09-30T11:28:02.538Z,3.70
2018-09-30T11:29:06.670Z,4.07
2018-09-30T11:30:10.117Z,3.97
2018-09-30T11:31:13.528Z,3.83
2018-09-30T11:32:17.195Z,3.87
2018-09-30T11:33:20.658Z,3.50
2018-09-30T11:34:24.118Z,3.80
2018-09-30T11:35:27.574Z,3.50
2018-09-30T11:36:31.104Z,3.80
2018-09-30T11:37:34.555Z,3.70
2018-09-30T11:38:38.141Z,3.73
2018-09-30T11:39:41.588Z,3.40
2018-09-30T11:40:45.230Z,3.17
2018-09-30T11:41:48.904Z,3.50
2018-09-30T11:42:52.683Z,3.67
2018-09-30T11:43:56.128Z,3.73
2018-09-30T11:44:59.873Z,3.43
2018-09-30T11:46:03.552Z,3.33
2018-09-30T11:47:07.054Z,3.50
2018-09-30T11:48:10.525Z,3.30
2018-09-30T11:49:13.999Z,3.87
2018-09-30T11:50:17.430Z,3.40
2018-09-30T11:51:20.993Z,3.30
2018-09-30T11:52:24.386Z,3.90
2018-09-30T11:53:27.799Z,3.37
2018-09-30T11:54:31.222Z,4.00
2018-09-30T11:55:34.637Z,3.73
2018-09-30T11:56:38.031Z,2.97
2018-09-30T11:57:41.467Z,3.20
2018-09-30T11:58:44.893Z,3.70
2018-09-30T11:59:48.313Z,3.10
2018-09-30T12:00:51.771Z,3.60
2018-09-30T12:01:55.175Z,3.50
2018-09-30T12:02:58.624Z,3.20
2018-09-30T12:04:02.065Z,3.80
2018-09-30T12:05:05.615Z,3.50
2018-09-30T12:06:09.044Z,3.60
2018-09-30T12:07:12.437Z,3.13
2018-09-30T12:08:16.297Z,3.30
2018-09-30T12:09:19.755Z,3.50
2018-09-30T12:10:23.203Z,3.10
2018-09-30T12:11:26.912Z,3.43
2018-09-30T12:12:30.366Z,3.33
2018-09-30T12:13:33.875Z,3.50
2018-09-30T12:14:37.303Z,3.23
2018-09-30T12:15:40.742Z,4.07
2018-09-30T12:16:44.160Z,3.47
2018-09-30T12:17:47.608Z,3.27
2018-09-30T12:18:51.121Z,2.97
2018-09-30T12:19:54.469Z,3.53
2018-09-30T12:20:57.888Z,3.83
2018-09-30T12:22:01.426Z,3.00
2018-09-30T12:23:04.878Z,3.70
2018-09-30T12:24:08.634Z,3.70
2018-09-30T12:25:12.072Z,3.40
2018-09-30T12:26:15.528Z,3.40
2018-09-30T12:27:19.012Z,3.23
2018-09-30T12:28:22.433Z,3.30
2018-09-30T12:29:25.865Z,3.60
2018-09-30T12:30:29.278Z,3.30
2018-09-30T12:31:32.791Z,3.50
2018-09-30T12:32:36.210Z,3.40
2018-09-30T12:33:39.677Z,2.77
2018-09-30T12:34:43.068Z,3.40
2018-09-30T12:35:46.540Z,3.07
2018-09-30T12:36:50.000Z,3.37
2018-09-30T12:37:53.449Z,3.50
2018-09-30T12:38:56.889Z,3.23
2018-09-30T12:40:00.359Z,3.33
2018-09-30T12:41:03.780Z,3.17
2018-09-30T12:42:07.208Z,3.67
2018-09-30T12:43:10.626Z,2.80
2018-09-30T12:44:14.061Z,3.10
2018-09-30T12:45:17.497Z,3.47
2018-09-30T12:46:20.947Z,3.20
2018-09-30T12:47:24.546Z,3.50
2018-09-30T12:48:27.932Z,2.90
2018-09-30T12:49:31.438Z,3.60
2018-09-30T12:50:34.885Z,2.80
2018-09-30T12:51:38.383Z,3.60
2018-09-30T12:52:41.806Z,3.10
2018-09-30T12:53:45.238Z,3.03
2018-09-30T12:54:48.912Z,2.70
2018-09-30T12:55:52.356Z,3.20
2018-09-30T12:56:55.784Z,3.60
2018-09-30T12:57:59.247Z,3.30
2018-09-30T12:59:02.693Z,2.70
2018-09-30T13:00:06.754Z,3.33
2018-09-30T13:01:10.187Z,2.70
2018-09-30T13:02:15.471Z,3.20
2018-09-30T13:03:18.919Z,3.03
2018-09-30T13:04:22.387Z,2.90
2018-09-30T13:05:25.897Z,3.03
2018-09-30T13:06:29.360Z,3.60
2018-09-30T13:07:32.811Z,3.03
2018-09-30T13:08:36.281Z,3.50
2018-09-30T13:09:39.756Z,2.90
2018-09-30T13:10:43.208Z,2.60
2018-09-30T13:11:46.858Z,3.10
2018-09-30T13:12:50.309Z,3.20
2018-09-30T13:13:53.822Z,3.20
2018-09-30T13:14:57.250Z,3.50
2018-09-30T13:16:00.678Z,3.10
2018-09-30T13:17:04.245Z,2.73
2018-09-30T13:18:07.721Z,3.30
2018-09-30T13:19:11.150Z,3.10
2018-09-30T13:20:14.622Z,3.13
2018-09-30T13:21:18.133Z,3.03
2018-09-30T13:22:21.586Z,3.53
2018-09-30T13:23:25.354Z,3.20
2018-09-30T13:24:28.770Z,2.70
2018-09-30T13:25:32.276Z,2.70
2018-09-30T13:26:35.730Z,3.07
2018-09-30T13:27:39.157Z,2.60
2018-09-30T13:28:42.610Z,3.23
2018-09-30T13:29:46.090Z,3.00
2018-09-30T13:30:49.601Z,2.97
2018-09-30T13:31:53.065Z,2.67
2018-09-30T13:32:56.579Z,9.37
2018-09-30T13:34:00.191Z,7.50
2018-09-30T13:35:03.631Z,6.27
2018-09-30T13:36:07.096Z,5.63
2018-09-30T13:37:10.557Z,4.70
2018-09-30T13:38:14.057Z,5.30
2018-09-30T13:39:17.590Z,5.40
2018-09-30T13:40:21.060Z,4.83
2018-09-30T13:41:24.879Z,4.73
2018-09-30T13:42:28.221Z,4.77
2018-09-30T13:43:31.725Z,4.10
2018-09-30T13:44:35.300Z,4.47
2018-09-30T13:45:38.747Z,4.30
2018-09-30T13:46:42.313Z,3.77
2018-09-30T13:47:45.800Z,5.33
2018-09-30T13:48:49.246Z,4.07
2018-09-30T13:49:52.720Z,4.17
2018-09-30T13:50:56.147Z,4.50
2018-09-30T13:51:59.606Z,3.80
2018-09-30T13:53:03.135Z,4.27
2018-09-30T13:54:07.014Z,4.07
2018-09-30T13:55:10.603Z,4.07
2018-09-30T13:56:14.038Z,4.20
2018-09-30T13:57:17.630Z,4.23
2018-09-30T13:58:21.405Z,3.83
2018-09-30T13:59:24.973Z,3.70
2018-09-30T14:00:28.460Z,3.60
2018-09-30T14:01:31.873Z,4.03
2018-09-30T14:02:35.383Z,3.60
2018-09-30T14:03:38.807Z,4.10
2018-09-30T14:04:42.254Z,3.47
2018-09-30T14:05:45.686Z,3.37
2018-09-30T14:06:49.182Z,4.03